Larmer 20 External Results
Tollard Royal
10 Mar 19
Page: 1 2
Head to Head - to compare runners check 2 or more boxes below and then click
 
20MMT
PosGun   Name AG ClubSBPBHC  
12:31:09   Gav Pritchard V40M     
22:44:00   Paul Deaton SBV50MSouthville2:44:002:20:205.2 
32:44:32   Stanley Hayes U20MTeignbridge Trotters    
42:44:51   Alan Hutchinson SENMSt Helens Striders    
52:46:47   Patrick Connors SBSENMItchen Spitfires2:46:472:44:382.3 
62:48:26   Joseph Orme SENM     
72:48:33   Mark McDonald  V45MStubbington Green2:41:542:25:025.4 
82:48:55   Andrew Dudgeon PBV50MHedge End2:48:552:48:554.5 
92:49:55   Luke Baker PBU20MWells City/Yeovil2:49:552:49:557.4 
102:50:49   Ruth Thom V35WCity of Salisbury A.R.C.    
112:56:05   Ian Rough V40M     
122:57:30   Amelia Watts SENW     
132:57:41   Stephen Williams PBV35MItchen Spitfires2:57:412:57:413.1 
142:58:05   Mike White SBV45MCity of Salisbury2:58:052:57:507.2 
152:59:05   Andy Barnsley V40M     
162:59:57   David Jennings PBV40MStubbington Green2:59:572:59:578.3 
173:01:06   Ginny Mills PBV40WNorth Dorset Tri3:01:063:01:0613.3 
183:02:09   Andrew Robbins  V35MHook Runners2:34:012:34:019.4 
193:02:18   Colin Mcmanus  V35MWinchester2:32:102:28:316.2 
203:02:22   Geri Taylor V40W     
213:03:02   Neil Stockley V45M     
223:03:36   Claire Sparrey V40W     
233:05:05   Paul Currah  V35MPoole Runners2:15:522:15:522.8 
243:05:15   Leon Gates PBV40MRoyal Manor of Portland3:05:153:05:159.1 
253:06:43   Harry Glenn SBSENMSwindon Striders3:06:432:26:5910.5 
263:08:25   Mike Newnham V35M     
273:08:38   Neil White PBV40MTotton3:08:383:08:385.8 
283:09:12   Graham Andrews PBV35MItchen Spitfires3:09:123:09:1210.3 
293:09:20   Adam Jeffery V35M     
303:10:30   Matthew Fox V35M     
313:11:46   Simon Denson PBV45MRunning Forever3:11:463:11:466.2 
323:12:25   Thomas Holmes V40M     
333:12:53   Austin Mills V40M     
343:13:15   Simon Bacon PBV45MStubbington Green3:13:153:13:158.1 
353:13:51   Steve Stone  V45MRIOT2:41:232:41:2311.5 
363:15:19   Steph Boyd V45M     
373:16:05   Bethan Hammond SBSENWTotton/Leeds Uni3:16:052:49:2310.1 
383:18:08   Nick Donohue V45M     
393:19:23   Tamara Lake PBV50WLiss3:19:233:19:238.6 
403:19:31   Mat Hemming PBV35MUnattached3:19:313:19:3110.1 
413:20:21   Rebecca Gardiner PBV35WWestbourne/Lonely Goat RC3:20:213:20:2110.7 
423:20:39   Kevin Allen PBV35MGosport3:20:393:20:399.7 
433:20:58   Simon Harrison V40M     
443:21:49   Mireille Cook PBV40WNewbury3:21:493:21:4910.5 
453:22:28   David Morris PBV50MTrail Running Association3:22:283:22:2815.2 
463:24:22   Fiona Rossrussell V55WCity of Salisbury A.R.C.    
473:24:29   Ed Lear V40MVerwood Runners    
483:24:33   James Yeardley PBV45MFareham3:24:333:24:3312.6 
493:25:01   Jason Woods SBV35MDorset Doddlers3:25:012:53:2221.2 
503:27:45   Roy Laurence Dillon PBV65MClanfield3:27:453:27:4513.4 
513:28:03   Dan Law PBSENMCrediton Running Network3:28:033:28:0313.7 
523:28:19   Mark Stockman V40MDorchester R.I.O.T    
533:28:20   Nigel Barnett PBV45MTeignbridge3:28:203:28:2014.3 
543:28:30   Joanne Labram PBV45WHedge End3:28:303:28:308.9 
553:28:50   Steven Perry V40MLonely Goat RC    
563:31:14   Luke Clifton V55M     
573:31:56   Jay Amin PBV45MWimborne3:31:563:31:5617.0 
583:32:09   Simon Pettitt PBV45MClanfield3:32:093:32:0918.0 
593:32:20   Anna Gordon PBV35WHedge End3:32:203:32:2014.4 
603:32:38   Helen Sawyer SBV50WWestbury3:32:382:35:4313.5 
613:33:15   Andrew Garvie PBV50MWoodbridge3:33:153:33:1514.8 
623:33:35   Paula Williams  V35WFareham2:40:162:40:1611.1 
633:34:17   Samantha Baker PBV45WYeovil/Wells City3:34:173:34:1714.7 
643:34:24   Lucy Avery PBV40WWeston3:34:243:34:2422.1 
653:34:48   Sean Duffy  V35MNorthbrook2:53:082:53:0810.6 
663:35:08   Joanne Thwaite PBV40WWarminster3:35:083:35:0816.3 
673:35:26   Hannah Hall PBV35WHart3:35:263:35:2619.9 
683:35:50   Adam Willmott V45M     
693:35:52   George Hill V35MPark run poole    
703:35:57   Jason Temperton PBV45MClanfield3:35:573:35:577.6 
713:36:47   Rob Kirkpatrick PBV35MRIOT3:36:473:36:4715.9 
723:37:34   Olga Vearncombe V40WGreat Western Runners    
733:37:40   Gavin Rennie PBV40MStubbington Green3:37:403:37:4012.9 
743:37:48   Ben Davidson PBSENMPoole Runners3:37:483:37:4814.1 
753:37:48   Scott Mordew PBV40MLytchett Manor3:37:483:37:486.5 
763:38:36   Helen Fursman V40WALMOST ATHLETES    
773:39:33   Carmel Ryan SBV50WBournemouth Joggers3:39:332:46:3213.7 
783:39:37   Stephen James PBV45MDorset Doddlers3:39:373:39:3722.8 
793:39:38   Justine Potter V45W     
803:39:39   Lee Donnarumma PBV40MItchen Spitfires3:39:393:39:3911.4 
813:39:39   Rob Jesson PBV50MItchen Spitfires3:39:393:39:3913.4 
823:40:33   Adrian Kingston V40M     
833:41:00   Graeme Banks V35MRookery fit farm    
843:41:17   Sarah Bennett V45WPDfitness    
853:41:17   Karen Burgess V50W     
863:41:24   Mark Sampson V55M     
873:42:11   Luke Dowsett PBU23MLittledown3:42:113:42:114.1 
883:42:12   Suzanne Janes PBSENWLittledown3:42:123:42:1210.9 
893:42:16   Maria Kempson V45W     
903:43:48   Natasha Avery V40WItchen Spitfires Running Club    
913:43:48   Sam Cox PBSENWItchen Spitfires3:43:483:43:4813.0 
923:43:51   Gabby O'Brien SBV35WItchen Spitfires3:43:512:55:4715.4 
933:44:29   Grace Gilbert SENWThames Turbo Tri Club    
943:45:03   Richard Tory V35M     
953:45:31   Caroline M Gasper SBV40WStamford3:45:312:39:0321.2 
963:46:10   Kali Banda PBV35MItchen Spitfires3:46:103:46:106.3 
973:46:42   Caoimhe Pettingell V35WNorth Devon Road Runners    
983:46:42   Katrina Venner V40W     
993:46:44   Paul Wilding PBV55MLytchett Manor3:46:443:46:4412.0 
1003:46:45   Victoria Penman PBV45WFrome3:46:453:46:4522.0 
1013:47:59   Daniele Franceschini V65MEastleigh Running Club    
1023:48:55   Jon Diaper SBV60MEastleigh RC3:48:552:54:0517.0 
1033:49:02   Nigel Morris V40M     
1043:49:11   Richie Burrough V35M     
1053:49:27   Hannah Ridout SENW     
1063:49:44   Tarnia Butler SBV45WIsle of Wight RRC3:49:442:55:2317.6 
1073:49:59   Jessica Ridout V35W     
1083:50:56   Simon Beer V45MItchen Spitfires Running Club    
1093:51:31   Chris Gould V35M     
1103:51:35   Sally McGrath  V50WStubbington Green3:07:283:07:2814.2 
1113:52:49   Kate Small V40W     
1123:52:49   Andy Mcveigh V40M     
1133:53:38   Peter Hodgson PBV50MClanfield3:53:383:53:3825.8 
1143:53:39   Brian Pope SBV55MClanfield3:53:393:43:5427.3 
1153:54:44   Ria Larkins V35W     
1163:54:48   Andy Lee  V55MStubbington Green3:23:492:36:0611.5 
1173:55:06   Melenie Murphy V50WCity of Salisbury A.R.C.    
1183:55:43   Natalie Coupe PBV35WHalterworth3:55:433:55:4320.2 
1193:56:58   Emma Perkins PBV35WRunning Forever3:56:583:56:5820.8 
1203:56:58   Lisa Rossiter PBV40WRunning Forever3:56:583:56:5830.7 
1213:57:25   Katrina Jones PBSENWLiss3:57:253:57:2525.8 
1223:57:25   Timothy Hitchmough SENM     
1233:58:09   Tobin Gordon V45M     
1243:58:11   Robyn Stock SENW     
1253:58:42   Anita Hancocks V50W     
1263:58:45   Stephen Hills PBV55MMaiden Newton3:58:453:58:4515.6 
1273:59:35   Rowena Harwar V50W     
1283:59:35   Paul Ballard V40M     
1293:59:43   Robert Scott V40M     
1304:00:54   Philip Tyrrell PBV35MLordshill4:00:544:00:5414.2 
1314:01:03   Graham Kesley V40M     
1324:01:08   Donna Steele V35WPunching Ponies    
1334:01:50   Elizabeth White PBV35WTotton4:01:504:01:5015.5 
1344:02:01   Allen Davis PBV45MPoole Runners4:02:014:02:0125.5 
1354:02:03   Katrina Smale V45WNorth Devon Road Runners    
1364:02:15   Sarah Thorne V50W     
1374:03:21   Marie Glanfield V50W     
1384:03:24   John Marshall V50M     
1394:03:39   Clare Grindrod V55W     
1404:03:59   Emma Haywood  V45WBournemouth Joggers3:45:333:28:4519.3 
1414:04:29   Ian Coombs SBV45MClanfield4:04:293:30:0212.2 
1424:05:16   Samantha Bayle PBV50WReading RR/Reading Joggers4:05:164:05:1617.5 
1434:05:55   Scot Bower V40M     
1444:06:59   Dan Turner V40MTrail Running Association    
1454:07:02   Lucie Turner PBV45WTrail Running Association4:07:024:07:0219.0 
1464:08:45   Maya Martin V40WHi 5 Runners Rooksdown    
1474:08:52   Clare Bushnell PBSENWRIOT4:08:524:08:5221.8 
1484:09:27   Sarah Jewers PBV45WAvon Valley4:09:274:09:2714.7 
1494:09:27   Amanda-Jayne Bygrave SBV50WAvon Valley4:09:273:03:1017.1 
1504:10:39   Colin Thatcher PBV60MHatch Warren4:10:394:10:3915.4 
1514:10:47   Clare Watson V45WCary Runners    
1524:11:23   Vicky Manock V45WItchen Spitfires Running Club    
1534:11:41   Gerry Robson PBV55MItchen Spitfires4:11:414:11:415.9 
1544:11:41   David Chalk PBV55MItchen Spitfires4:11:414:11:4113.1 
1554:11:51   Mark Tiller V55MItchen Spitfires Running Club    
1564:12:31   Steve Dicks PBV45MOlney4:12:314:12:316.5 
1574:12:38   Andrew Kirillov PBV35MUnattached4:12:384:12:3813.5 
1584:12:51   Tony Weaver SBV45MLytchett Manor4:12:513:00:2514.4 
1594:12:52   Josie Armstrong V40WLytchett Manor Striders    
1604:13:26   Marie McDonald  V45WStubbington Green3:46:272:56:3414.1 
1614:13:26   Elizabeth Butler V35WRun Blandford    
1624:13:30   Calum Mcdonald PBSENMStubbington Green4:13:304:13:3020.7 
1634:13:51   Samantha Tucker SENW     
1644:13:52   Neil Bacon V50M     
1654:14:49   Kate Blye V45W     
1664:15:11   Dean Rutter V40M     
1674:16:06   Fiona Silk V40WBad Boy Running    
1684:16:13   Chris Stephens V50M     
1694:16:39   Kimberly Crosswell PBSENWHedge End4:16:394:16:3916.6 
1704:17:19   Thomas Weedon V60M     
1714:17:29   Lisa Donn PBV45WStubbington Green4:17:294:17:2916.9 
1724:17:29   Dean Hatton V45M     
1734:17:42   John Cox PBV60MStubbington Green4:17:424:17:4219.2 
1744:18:06   David Hurst PBV50MDorset Doddlers4:18:064:18:0618.2 
1754:18:11   Laura Kay PBV35WStubbington Green4:18:114:18:1125.8 
1764:18:31   Claire Frogley SBV35WBrackley/Unattached4:18:313:27:0213.7 
1774:18:32   Natasha Berry SBSENWBrackley4:18:323:22:4716.5 
1784:18:54   Robert Labus V45M     
1794:18:55   Sally Kerr V40W     
1804:21:48   Rachel Davey V50WJust Jog - Bideford    
1814:22:08   Peter James PBV45MMaiden Newton4:22:084:22:087.7 
1824:22:08   Kirsty Eveleigh PBSENWMaiden Newton4:22:084:22:0817.4 
1834:22:15   Stephen Rudolf PBV55MTrail Running Association4:22:154:22:1527.2 
1844:22:24   Lesley Wilman PBV55WClanfield4:22:244:22:2426.2 
1854:22:33   Sophie Sampson V45W     
1864:22:47   Karen Croad PBV55WEgdon Heath4:22:474:22:4714.5 
1874:22:47   Adam Frampton PBV45MDorset Doddlers4:22:474:22:4722.6 
1884:22:47   Stacey Connolly SBV35WDorset Doddlers4:22:473:26:2813.3 
1894:22:48   Jill Watson PBV45WDorset Doddlers4:22:484:22:4815.8 
1904:22:48   Jamie Drennan PBV40MDorset Doddlers4:22:484:22:4817.2 
1914:22:52   Nick Atherton PBV60MTrail Running Association/Unattached4:22:524:22:5218.7 
1924:23:31   Bev Trenwith PBV45WPurbeck4:23:314:23:3127.9 
1934:24:17   Anne Saunders PBV55WRIOT4:24:174:24:1725.4 
1944:24:17   Stephen Ferris V50M     
1954:25:05   Si Thomas V45MBad Boy Running    
1964:25:05   Janey Wise V45W     
1974:25:50   Joanna Flatt  SENWVegan3:24:013:24:0119.5 
1984:25:51   William Harding SENM     
1994:25:54   Nathalie Byrnes SENWRun Blandford    
2004:25:56   Barnaby Luke Hicks PBV35MVegan4:25:564:25:5610.0 
2014:26:27   Jonathan Harrington  V55MStubbington Green4:15:334:15:3318.5 
2024:26:52   Louise Ward PBV50WYeovil Town4:26:524:26:5223.3 
2034:26:52   Helen Nesbitt PBV35WYeovil Town4:26:524:26:5215.8 
2044:26:53   Lesley Nesbitt PBV65WYeovil Town4:26:534:26:5316.9 
2054:26:53   Rachel Hayton PBV50WYeovil Town4:26:534:26:5319.2 
2064:27:07   Stuart White PBSENMItchen Spitfires/Unattached4:27:074:27:0720.4 
2074:27:12   Abigail Hamilton SBV40WItchen Spitfires4:27:124:05:1417.5 
2084:27:19   Ali Bentham V40W     
2094:27:19   Julie Griffiths-Jones PBV40WRunning Forever4:27:194:27:1921.6 
2104:28:00   Glyn Roberts V50MTeam Zulu    
2114:28:43   Lisa Boorman SENW     
2124:28:55   David Langley V55MHi 5 Runners Rooksdown    
2134:29:00   Shan McCarthy PBV45WWeston4:29:004:29:0020.2 
2144:29:17   Greig Benson PBV40MStubbington Green4:29:174:29:179.2 
2154:29:20   Helen Benson PBV40WStubbington Green4:29:204:29:2017.7 
2164:29:22   Sarah Rees V50WLordshill Road Runners Club    
2174:29:25   Alexandre Parent PBV45MLordshill4:29:254:29:2528.7 
2184:30:42   Lee Discombe V40M     
2194:32:57   Harriet Bradstock V40W     
2204:34:58   Sarah Neenan SENW     
2214:34:58   Joseph Gosling SENM     
2224:35:05   Carolyn Ward PBV50WRyde4:35:054:35:0518.7 
2234:35:05   Keith Ruth SBV55MRyde4:35:053:54:3015.1 
2244:35:49   Teresa Green V40WBustinSkin triathlon Club    
2254:36:21   Hayley Gould PBV35WRIOT4:36:214:36:2127.1 
2264:36:50   Laura Briggs V35W     
2274:37:46   Isla Henderson PBV40WHedge End4:37:464:37:4627.5 
2284:37:47   Helen Borrett PBV35WHedge End4:37:474:37:4725.4 
2294:37:47   Alison Snelgar PBV45WHedge End4:37:474:37:4732.9 
2304:38:33   Mark Gibbs V45M     
2314:39:37   Elizabeth Ashford V45WDevizes Running Club    
2324:40:24   Julia Slack U20WlES sLINN    
2334:41:12   Jacqueline Ainsley V40WHindon Rotten Runners    
2344:44:02   Emma Joyce SENW     
2354:44:48   Lynne Crabtree V45WOakdale Runners    
2364:44:48   Matthew Hill V40M     
2374:45:38   Caroline Taplin V45W     
2384:45:43   Rachel Stockdale PBSENWBracknell Forest4:45:434:45:4324.9 
2394:46:43   Lauren Robbins  V35WHook Runners4:00:524:00:5226.3 
2404:46:43   Erika Amadio PBV40WHook Runners4:46:434:46:4327.7 
2414:47:11   John Lendrum V40M     
2424:48:46   Hannah Lawless PBSENWItchen Spitfires4:48:464:48:4615.3 
2434:48:48   Alana Williams PBSENWItchen Spitfires4:48:484:48:4821.1 
2444:49:10   Louise Wigmore V40W     
2454:49:11   Els Freshwater V40WMeon Valley runners    
2464:53:05   Cliff Shaw PBV55MStubbington Green4:53:054:53:0518.6 
2474:53:05   Janet Shaw PBV50WStubbington Green4:53:054:53:0522.2 
2484:53:20   Jenni Baker PBV50WCrediton Running Network4:53:204:53:2026.0 
2494:54:12   Adam Tanner SENMRebel Runners Crewkerne    
2504:54:12   Hayley Lomas SENWRebel Runners    
Page: 1 2